createdAt,value
2019-05-07T00:01:04.989Z,32.40
2019-05-07T00:03:33.913Z,29.55
2019-05-07T00:06:02.905Z,29.72
2019-05-07T00:08:32.238Z,30.88
2019-05-07T00:11:02.270Z,31.77
2019-05-07T00:13:33.245Z,34.20
2019-05-07T00:16:02.476Z,35.60
2019-05-07T00:18:32.191Z,31.52
2019-05-07T00:21:03.346Z,33.20
2019-05-07T00:23:32.622Z,33.10
2019-05-07T00:26:02.448Z,31.80
2019-05-07T00:28:32.493Z,33.28
2019-05-07T00:31:02.869Z,33.48
2019-05-07T00:33:32.523Z,32.17
2019-05-07T00:36:12.978Z,29.48
2019-05-07T00:38:44.806Z,29.48
2019-05-07T00:41:23.246Z,29.95
2019-05-07T00:43:54.177Z,29.40
2019-05-07T00:46:25.874Z,30.37
2019-05-07T00:48:54.575Z,31.60
2019-05-07T00:51:27.741Z,30.45
2019-05-07T00:53:56.505Z,30.15
2019-05-07T00:56:27.784Z,30.88
2019-05-07T00:58:56.868Z,32.05
2019-05-07T01:01:26.126Z,29.92
2019-05-07T01:03:54.893Z,31.73
2019-05-07T01:06:26.642Z,32.60
2019-05-07T01:08:54.577Z,32.70
2019-05-07T01:11:23.755Z,33.63
2019-05-07T01:13:52.698Z,33.02
2019-05-07T01:16:22.214Z,31.60
2019-05-07T01:18:53.861Z,31.77
2019-05-07T01:21:22.846Z,31.68
2019-05-07T01:23:52.313Z,32.53
2019-05-07T01:26:21.902Z,32.17
2019-05-07T01:29:02.837Z,30.90
2019-05-07T01:31:43.000Z,33.53
2019-05-07T01:34:32.313Z,35.00
2019-05-07T01:37:02.690Z,33.65
2019-05-07T01:39:32.650Z,33.85
2019-05-07T01:42:02.285Z,33.88
2019-05-07T01:44:32.560Z,34.27
2019-05-07T01:47:02.531Z,32.17
2019-05-07T01:49:33.032Z,33.48
2019-05-07T01:52:02.651Z,33.42
2019-05-07T01:54:33.264Z,33.65
2019-05-07T01:57:03.007Z,31.90
2019-05-07T01:59:32.209Z,33.75
2019-05-07T02:02:06.317Z,33.42
2019-05-07T02:04:43.839Z,31.30
2019-05-07T02:07:34.573Z,31.77
2019-05-07T02:10:25.504Z,32.30
2019-05-07T02:12:54.401Z,31.02
2019-05-07T02:15:23.238Z,32.30
2019-05-07T02:17:52.646Z,30.88
2019-05-07T02:20:22.524Z,29.07
2019-05-07T02:22:53.261Z,31.85
2019-05-07T02:25:22.239Z,31.87
2019-05-07T02:27:52.881Z,29.05
2019-05-07T02:30:23.820Z,30.95
2019-05-07T02:32:54.008Z,31.12
2019-05-07T02:35:23.667Z,28.47
2019-05-07T02:38:03.121Z,28.50
2019-05-07T02:40:38.470Z,27.40
2019-05-07T02:43:07.400Z,28.05
2019-05-07T02:45:47.799Z,29.00
2019-05-07T02:48:19.849Z,29.27
2019-05-07T02:53:33.683Z,29.32
2019-05-07T02:56:03.621Z,28.95
2019-05-07T02:58:33.132Z,28.73
2019-05-07T03:01:04.793Z,29.45
2019-05-07T03:03:33.497Z,27.82
2019-05-07T03:06:05.133Z,25.97
2019-05-07T03:08:33.826Z,27.15
2019-05-07T03:11:03.481Z,27.67
2019-05-07T03:13:33.906Z,27.75
2019-05-07T03:16:03.771Z,26.82
2019-05-07T03:18:33.877Z,28.57
2019-05-07T03:21:12.786Z,28.75
2019-05-07T03:24:03.663Z,27.75
2019-05-07T03:26:36.691Z,27.95
2019-05-07T03:29:09.109Z,30.62
2019-05-07T03:31:55.639Z,29.60
2019-05-07T03:34:47.134Z,29.18
2019-05-07T03:37:18.947Z,28.40
2019-05-07T03:39:47.948Z,28.55
2019-05-07T03:42:18.495Z,29.07
2019-05-07T03:45:15.412Z,28.42
2019-05-07T03:47:47.211Z,29.05
2019-05-07T03:50:16.350Z,26.65
2019-05-07T03:52:45.044Z,26.75
2019-05-07T03:55:14.798Z,27.90
2019-05-07T03:57:44.187Z,27.50
2019-05-07T04:00:13.568Z,25.15
2019-05-07T04:02:43.754Z,26.65
2019-05-07T04:05:13.939Z,27.02
2019-05-07T04:07:43.621Z,25.12
2019-05-07T04:10:14.905Z,23.90
2019-05-07T04:12:44.149Z,41.42
2019-05-07T04:15:15.491Z,34.60
2019-05-07T04:17:44.033Z,29.35
2019-05-07T04:20:13.799Z,27.37
2019-05-07T04:22:43.266Z,31.68
2019-05-07T04:25:34.758Z,34.18
2019-05-07T04:28:14.125Z,35.03
2019-05-07T04:30:43.781Z,33.05
2019-05-07T04:33:14.380Z,26.50
2019-05-07T04:35:48.703Z,30.72
2019-05-07T04:38:17.894Z,28.35
2019-05-07T04:40:47.057Z,28.20
2019-05-07T04:43:15.741Z,29.23
2019-05-07T04:45:44.647Z,31.82
2019-05-07T04:48:14.250Z,28.95
2019-05-07T04:50:47.903Z,29.27
2019-05-07T04:53:15.522Z,29.67
2019-05-07T04:55:44.451Z,30.17
2019-05-07T04:58:14.086Z,31.82
2019-05-07T05:00:43.484Z,31.85
2019-05-07T05:03:23.750Z,31.42
2019-05-07T05:05:53.266Z,28.40
2019-05-07T05:08:23.460Z,29.85
2019-05-07T05:10:53.727Z,29.70
2019-05-07T05:13:23.773Z,27.15
2019-05-07T05:15:52.949Z,27.95
2019-05-07T05:18:22.147Z,29.25
2019-05-07T05:21:04.676Z,28.52
2019-05-07T05:23:45.106Z,28.98
2019-05-07T05:26:13.773Z,28.38
2019-05-07T05:28:42.556Z,29.80
2019-05-07T05:31:12.678Z,26.77
2019-05-07T05:33:42.114Z,25.82
2019-05-07T05:36:12.653Z,25.68
2019-05-07T05:38:42.383Z,20.57
2019-05-07T05:41:12.324Z,20.68
2019-05-07T05:44:11.855Z,20.30
2019-05-07T05:46:42.697Z,19.15
2019-05-07T05:49:11.881Z,36.63
2019-05-07T05:52:08.741Z,22.77
2019-05-07T05:54:56.372Z,23.27
2019-05-07T05:57:34.819Z,19.95
2019-05-07T06:00:38.701Z,24.85
2019-05-07T06:03:29.652Z,24.60
2019-05-07T06:06:07.462Z,23.27
2019-05-07T06:08:44.772Z,23.57
2019-05-07T06:11:32.899Z,21.07
2019-05-07T06:14:06.862Z,20.60
2019-05-07T06:16:38.906Z,20.95
2019-05-07T06:22:16.942Z,21.12
2019-05-07T06:24:53.137Z,20.88
2019-05-07T06:27:22.955Z,19.75
2019-05-07T06:29:52.457Z,19.10
2019-05-07T06:32:22.928Z,21.12
2019-05-07T06:34:52.292Z,20.62
2019-05-07T06:37:22.868Z,20.60
2019-05-07T06:40:02.612Z,17.45
2019-05-07T06:42:52.240Z,18.27
2019-05-07T06:45:26.788Z,13.60
2019-05-07T06:47:55.466Z,13.08
2019-05-07T06:50:24.250Z,13.28
2019-05-07T06:52:53.196Z,12.63
2019-05-07T06:55:22.878Z,21.27
2019-05-07T06:57:53.046Z,18.05
2019-05-07T07:00:42.205Z,22.32
2019-05-07T07:03:17.906Z,16.27
2019-05-07T07:06:12.633Z,16.20
2019-05-07T07:09:02.593Z,27.27
2019-05-07T07:11:36.645Z,13.35
2019-05-07T07:14:05.780Z,13.93
2019-05-07T07:16:34.549Z,14.20
2019-05-07T07:19:03.484Z,15.03
2019-05-07T07:21:32.779Z,13.93
2019-05-07T07:24:03.035Z,17.42
2019-05-07T07:26:36.322Z,17.82
2019-05-07T07:29:05.869Z,14.78
2019-05-07T07:31:42.592Z,14.33
2019-05-07T07:34:12.987Z,13.80
2019-05-07T07:37:05.020Z,12.98
2019-05-07T07:39:22.759Z,17.42
2019-05-07T07:41:54.650Z,14.00
2019-05-07T07:44:23.411Z,23.73
2019-05-07T07:46:53.103Z,26.27
2019-05-07T07:49:22.484Z,13.35
2019-05-07T07:51:52.585Z,49.42
2019-05-07T07:54:22.662Z,12.43
2019-05-07T07:56:58.569Z,13.00
2019-05-07T07:59:45.595Z,14.60
2019-05-07T08:02:42.521Z,12.68
2019-05-07T08:05:12.487Z,12.43
2019-05-07T08:07:42.606Z,13.45
2019-05-07T08:10:12.836Z,14.00
2019-05-07T08:12:42.428Z,10.25
2019-05-07T08:15:18.106Z,16.85
2019-05-07T08:17:42.038Z,9.48
2019-05-07T08:20:12.958Z,15.10
2019-05-07T08:22:42.338Z,8.90
2019-05-07T08:25:12.506Z,9.20
2019-05-07T08:27:42.053Z,9.33
2019-05-07T08:30:13.676Z,9.33
2019-05-07T08:32:52.938Z,9.93
2019-05-07T08:35:41.912Z,8.60
2019-05-07T08:38:12.758Z,8.45
2019-05-07T08:40:41.899Z,10.18
2019-05-07T08:43:12.615Z,16.70
2019-05-07T08:45:56.835Z,8.78
2019-05-07T08:48:33.379Z,8.58
2019-05-07T08:51:02.585Z,8.78
2019-05-07T08:53:32.825Z,8.35
2019-05-07T08:56:03.219Z,8.45
2019-05-07T08:58:32.268Z,9.63
2019-05-07T09:01:03.642Z,8.90
2019-05-07T09:03:44.655Z,6.83
2019-05-07T09:06:14.791Z,6.25
2019-05-07T09:08:43.724Z,6.75
2019-05-07T09:11:13.382Z,6.62
2019-05-07T09:13:42.761Z,6.22
2019-05-07T09:16:12.946Z,8.33
2019-05-07T09:18:42.283Z,7.37
2019-05-07T09:21:12.556Z,7.67
2019-05-07T09:23:42.435Z,8.00
2019-05-07T09:26:13.894Z,7.85
2019-05-07T09:29:02.657Z,7.92
2019-05-07T09:31:43.081Z,9.95
2019-05-07T09:34:11.848Z,8.38
2019-05-07T09:36:51.844Z,8.15
2019-05-07T09:39:22.122Z,8.03
2019-05-07T09:41:52.641Z,8.33
2019-05-07T09:44:22.187Z,8.00
2019-05-07T09:46:54.040Z,8.25
2019-05-07T09:49:22.738Z,7.78
2019-05-07T09:51:52.051Z,7.97
2019-05-07T09:54:22.980Z,7.80
2019-05-07T09:56:52.590Z,6.83
2019-05-07T09:59:21.917Z,7.80
2019-05-07T10:01:50.784Z,7.28
2019-05-07T10:04:22.232Z,7.08
2019-05-07T10:06:51.885Z,8.10
2019-05-07T10:09:22.304Z,8.83
2019-05-07T10:12:02.754Z,7.10
2019-05-07T10:14:33.115Z,7.03
2019-05-07T10:17:27.098Z,7.20
2019-05-07T10:19:56.028Z,8.28
2019-05-07T10:22:24.873Z,7.90
2019-05-07T10:24:53.634Z,7.17
2019-05-07T10:27:22.468Z,8.28
2019-05-07T10:29:53.029Z,7.85
2019-05-07T10:32:22.132Z,7.40
2019-05-07T10:34:52.516Z,6.83
2019-05-07T10:37:21.331Z,6.25
2019-05-07T10:39:51.889Z,6.97
2019-05-07T10:42:22.603Z,7.75
2019-05-07T10:45:05.644Z,7.58
2019-05-07T10:47:58.406Z,8.25
2019-05-07T10:50:37.969Z,7.72
2019-05-07T10:53:01.930Z,9.98
2019-05-07T10:55:32.598Z,7.45
2019-05-07T10:58:02.770Z,8.15
2019-05-07T11:00:33.083Z,9.15
2019-05-07T11:03:02.541Z,8.25
2019-05-07T11:05:32.586Z,10.32
2019-05-07T11:08:02.467Z,8.23
2019-05-07T11:10:32.702Z,7.70
2019-05-07T11:13:02.397Z,8.68
2019-05-07T11:15:32.601Z,10.20
2019-05-07T11:18:12.796Z,11.93
2019-05-07T11:20:49.813Z,9.28
2019-05-07T11:23:12.391Z,9.18
2019-05-07T11:25:42.121Z,9.25
2019-05-07T11:28:12.390Z,11.03
2019-05-07T11:30:42.555Z,10.08
2019-05-07T11:33:12.828Z,12.03
2019-05-07T11:35:42.454Z,8.60
2019-05-07T11:38:20.788Z,9.55
2019-05-07T11:40:42.722Z,9.68
2019-05-07T11:43:22.283Z,11.15
2019-05-07T11:45:58.825Z,9.68
2019-05-07T11:48:27.661Z,8.23
2019-05-07T11:51:04.352Z,8.05
2019-05-07T11:53:32.944Z,7.78
2019-05-07T11:56:02.527Z,7.58
2019-05-07T11:58:32.534Z,7.70
2019-05-07T12:01:15.213Z,7.90
2019-05-07T12:03:44.153Z,5.65
2019-05-07T12:06:13.184Z,6.10
2019-05-07T12:08:48.220Z,6.47
2019-05-07T12:11:12.473Z,5.17
2019-05-07T12:13:43.294Z,5.35
2019-05-07T12:16:14.204Z,5.87
2019-05-07T12:18:43.185Z,6.08
2019-05-07T12:21:20.633Z,6.80
2019-05-07T12:23:42.972Z,6.70
2019-05-07T12:26:12.610Z,5.80
2019-05-07T12:28:41.946Z,6.33
2019-05-07T12:31:28.344Z,5.90
2019-05-07T12:34:02.611Z,6.30
2019-05-07T12:36:33.130Z,7.12
2019-05-07T12:39:02.324Z,8.58
2019-05-07T12:41:33.722Z,7.50
2019-05-07T12:44:04.807Z,7.00
2019-05-07T12:46:33.880Z,6.45
2019-05-07T12:49:03.228Z,8.43
2019-05-07T12:51:38.106Z,8.00
2019-05-07T12:54:29.069Z,8.25
2019-05-07T12:56:57.858Z,8.63
2019-05-07T12:59:26.616Z,7.10
2019-05-07T13:02:21.376Z,7.12
2019-05-07T13:04:41.803Z,6.33
2019-05-07T13:07:15.907Z,7.60
2019-05-07T13:09:44.695Z,6.60
2019-05-07T13:12:13.402Z,6.80
2019-05-07T13:14:42.338Z,8.18
2019-05-07T13:17:12.113Z,6.92
2019-05-07T13:19:41.992Z,8.10
2019-05-07T13:22:12.433Z,7.80
2019-05-07T13:24:42.487Z,6.95
2019-05-07T13:27:11.406Z,7.00
2019-05-07T13:29:44.573Z,7.08
2019-05-07T13:32:13.928Z,7.17
2019-05-07T13:34:42.872Z,7.37
2019-05-07T13:37:17.726Z,7.28
2019-05-07T13:39:54.376Z,7.30
2019-05-07T13:42:44.125Z,6.50
2019-05-07T13:45:31.992Z,7.25
2019-05-07T13:48:08.743Z,7.40
2019-05-07T13:50:38.098Z,7.62
2019-05-07T13:53:07.134Z,8.03
2019-05-07T13:55:36.736Z,7.17
2019-05-07T13:58:05.594Z,7.67
2019-05-07T14:00:39.443Z,7.70
2019-05-07T14:03:08.213Z,7.28
2019-05-07T14:05:37.271Z,6.83
2019-05-07T14:08:06.605Z,6.85
2019-05-07T14:10:35.350Z,6.72
2019-05-07T14:13:11.147Z,7.37
2019-05-07T14:15:35.362Z,6.58
2019-05-07T14:18:04.485Z,7.15
2019-05-07T14:20:33.201Z,7.62
2019-05-07T14:23:01.915Z,7.45
2019-05-07T14:25:32.544Z,7.50
2019-05-07T14:28:02.252Z,7.10
2019-05-07T14:30:32.840Z,7.72
2019-05-07T14:33:08.217Z,6.87
2019-05-07T14:35:42.694Z,7.65
2019-05-07T14:38:32.065Z,8.03
2019-05-07T14:41:02.642Z,7.70
2019-05-07T14:43:37.743Z,6.70
2019-05-07T14:46:06.499Z,42.35
2019-05-07T14:48:36.274Z,7.55
2019-05-07T14:51:05.423Z,12.53
2019-05-07T14:53:34.300Z,9.20
2019-05-07T14:56:03.103Z,55.98
2019-05-07T14:58:32.015Z,10.15
2019-05-07T15:01:02.410Z,7.97
2019-05-07T15:03:32.057Z,10.88
2019-05-07T15:06:02.027Z,46.02
2019-05-07T15:08:32.284Z,17.80
2019-05-07T15:11:02.718Z,16.32
2019-05-07T15:13:32.269Z,10.18
2019-05-07T15:16:03.073Z,9.90
2019-05-07T15:19:03.059Z,15.45
2019-05-07T15:21:32.460Z,12.63
2019-05-07T15:24:02.411Z,9.13
2019-05-07T15:26:32.642Z,10.95
2019-05-07T15:29:11.868Z,9.95
2019-05-07T15:32:14.262Z,10.85
2019-05-07T15:35:26.665Z,12.47
2019-05-07T15:37:55.718Z,8.73
2019-05-07T15:40:24.850Z,8.35
2019-05-07T15:43:13.134Z,11.68
2019-05-07T15:45:42.133Z,9.90
2019-05-07T15:48:12.694Z,30.35
2019-05-07T15:50:42.885Z,15.35
2019-05-07T15:53:32.376Z,9.93
2019-05-07T15:56:01.856Z,11.97
2019-05-07T15:58:30.609Z,10.90
2019-05-07T16:01:02.061Z,23.10
2019-05-07T16:03:35.138Z,10.48
2019-05-07T16:06:04.073Z,10.10
2019-05-07T16:08:35.849Z,9.40
2019-05-07T16:11:04.635Z,16.10
2019-05-07T16:13:35.081Z,36.17
2019-05-07T16:16:03.773Z,39.58
2019-05-07T16:18:38.124Z,170.55
2019-05-07T16:21:07.330Z,23.40
2019-05-07T16:23:38.947Z,18.52
2019-05-07T16:26:07.967Z,30.45
2019-05-07T16:28:36.956Z,20.82
2019-05-07T16:31:05.684Z,7.70
2019-05-07T16:33:34.812Z,9.13
2019-05-07T16:36:03.658Z,7.80
2019-05-07T16:38:32.803Z,7.95
2019-05-07T16:41:01.518Z,7.47
2019-05-07T16:43:30.218Z,7.83
2019-05-07T16:45:58.915Z,7.60
2019-05-07T16:48:27.598Z,8.30
2019-05-07T16:50:56.753Z,9.40
2019-05-07T16:53:30.104Z,8.93
2019-05-07T16:55:56.115Z,7.78
2019-05-07T16:58:38.628Z,7.72
2019-05-07T17:01:09.077Z,7.80
2019-05-07T17:03:44.971Z,7.75
2019-05-07T17:06:13.672Z,8.60
2019-05-07T17:08:55.952Z,8.23
2019-05-07T17:11:24.843Z,8.00
2019-05-07T17:13:53.683Z,7.62
2019-05-07T17:16:22.918Z,7.92
2019-05-07T17:18:52.021Z,8.10
2019-05-07T17:21:21.810Z,8.43
2019-05-07T17:23:51.931Z,8.40
2019-05-07T17:26:23.031Z,8.28
2019-05-07T17:28:52.095Z,8.43
2019-05-07T17:31:22.927Z,8.70
2019-05-07T17:33:51.709Z,8.28
2019-05-07T17:36:22.286Z,8.90
2019-05-07T17:38:51.975Z,8.90
2019-05-07T17:41:26.543Z,9.05
2019-05-07T17:43:52.173Z,9.53
2019-05-07T17:46:21.789Z,8.65
2019-05-07T17:48:52.434Z,8.35
2019-05-07T17:51:42.174Z,8.38
2019-05-07T17:54:13.134Z,9.10
2019-05-07T17:56:42.283Z,8.58
2019-05-07T17:59:12.188Z,8.35
2019-05-07T18:02:01.924Z,8.45
2019-05-07T18:04:36.538Z,9.28
2019-05-07T18:09:32.012Z,8.40
2019-05-07T18:12:00.779Z,7.72
2019-05-07T18:14:32.378Z,8.05
2019-05-07T18:17:21.919Z,8.05
2019-05-07T18:19:50.738Z,7.90
2019-05-07T18:22:19.427Z,8.90
2019-05-07T18:24:48.452Z,8.98
2019-05-07T18:27:22.758Z,10.98
2019-05-07T18:29:52.254Z,12.25
2019-05-07T18:32:21.939Z,12.30
2019-05-07T18:34:51.953Z,10.20
2019-05-07T18:37:22.761Z,10.40
2019-05-07T18:39:52.203Z,11.45
2019-05-07T18:42:22.208Z,14.45
2019-05-07T18:44:52.452Z,9.95
2019-05-07T18:47:22.319Z,10.03
2019-05-07T18:49:51.985Z,8.55
2019-05-07T18:52:22.796Z,28.92
2019-05-07T18:54:52.081Z,31.55
2019-05-07T18:57:22.233Z,21.25
2019-05-07T18:59:53.154Z,16.87
2019-05-07T19:02:22.561Z,13.60
2019-05-07T19:04:51.993Z,11.08
2019-05-07T19:07:23.107Z,12.43
2019-05-07T19:09:52.388Z,10.80
2019-05-07T19:12:23.798Z,17.65
2019-05-07T19:14:52.715Z,13.25
2019-05-07T19:17:22.204Z,17.60
2019-05-07T19:19:52.538Z,36.30
2019-05-07T19:22:22.187Z,21.20
2019-05-07T19:24:52.699Z,17.70
2019-05-07T19:27:22.099Z,38.98
2019-05-07T19:29:51.172Z,19.73
2019-05-07T19:32:19.934Z,17.07
2019-05-07T19:34:48.949Z,14.35
2019-05-07T19:37:17.720Z,15.50
2019-05-07T19:39:46.504Z,15.85
2019-05-07T19:42:15.213Z,21.62
2019-05-07T19:44:43.913Z,15.10
2019-05-07T19:47:12.858Z,18.20
2019-05-07T19:49:42.033Z,18.17
2019-05-07T19:52:12.511Z,16.77
2019-05-07T19:54:44.350Z,15.25
2019-05-07T19:57:14.739Z,14.58
2019-05-07T19:59:43.677Z,13.83
2019-05-07T20:02:14.939Z,13.35
2019-05-07T20:04:43.622Z,13.72
2019-05-07T20:07:12.333Z,15.43
2019-05-07T20:09:42.867Z,16.35
2019-05-07T20:12:11.594Z,18.73
2019-05-07T20:14:42.196Z,17.92
2019-05-07T20:17:12.250Z,17.30
2019-05-07T20:19:41.799Z,18.60
2019-05-07T20:22:12.634Z,17.85
2019-05-07T20:24:43.297Z,19.07
2019-05-07T20:27:14.360Z,20.40
2019-05-07T20:29:43.217Z,22.17
2019-05-07T20:32:12.005Z,26.70
2019-05-07T20:34:42.308Z,27.35
2019-05-07T20:37:12.917Z,24.63
2019-05-07T20:39:43.092Z,26.37
2019-05-07T20:42:12.439Z,30.08
2019-05-07T20:44:42.640Z,22.48
2019-05-07T20:47:12.673Z,19.12
2019-05-07T20:49:42.732Z,17.25
2019-05-07T20:52:11.629Z,16.50
2019-05-07T20:54:45.929Z,18.02
2019-05-07T20:57:17.692Z,18.02
2019-05-07T20:59:46.397Z,20.85
2019-05-07T21:02:17.505Z,19.35
2019-05-07T21:04:46.202Z,20.93
2019-05-07T21:07:15.146Z,22.25
2019-05-07T21:09:44.092Z,24.10
2019-05-07T21:12:13.054Z,26.23
2019-05-07T21:14:41.898Z,33.10
2019-05-07T21:17:11.953Z,31.55
2019-05-07T21:19:42.769Z,27.40
2019-05-07T21:22:13.000Z,23.40
2019-05-07T21:24:42.326Z,19.02
2019-05-07T21:27:12.201Z,18.60
2019-05-07T21:29:42.236Z,17.37
2019-05-07T21:32:12.389Z,15.10
2019-05-07T21:34:43.348Z,16.05
2019-05-07T21:37:12.815Z,16.37
2019-05-07T21:39:42.407Z,16.17
2019-05-07T21:42:13.906Z,15.70
2019-05-07T21:44:43.037Z,15.88
2019-05-07T21:47:12.997Z,15.35
2019-05-07T21:49:43.038Z,16.93
2019-05-07T21:52:12.687Z,17.70
2019-05-07T21:54:52.538Z,17.25
2019-05-07T21:57:47.308Z,17.15
2019-05-07T22:00:22.215Z,16.05
2019-05-07T22:02:52.621Z,16.32
2019-05-07T22:05:22.508Z,14.83
2019-05-07T22:07:54.117Z,16.17
2019-05-07T22:10:22.310Z,14.78
2019-05-07T22:12:52.112Z,15.70
2019-05-07T22:15:22.544Z,16.57
2019-05-07T22:17:52.106Z,16.82
2019-05-07T22:20:21.869Z,15.95
2019-05-07T22:22:52.148Z,20.68
2019-05-07T22:25:22.219Z,43.20
2019-05-07T22:27:53.028Z,30.52
2019-05-07T22:30:27.897Z,23.92
2019-05-07T22:33:02.465Z,20.30
2019-05-07T22:35:38.040Z,19.55
2019-05-07T22:38:06.745Z,17.35
2019-05-07T22:40:35.470Z,24.10
2019-05-07T22:43:04.160Z,22.30
2019-05-07T22:45:32.852Z,25.55
2019-05-07T22:48:02.856Z,24.25
2019-05-07T22:50:33.180Z,21.05
2019-05-07T22:53:02.442Z,20.43
2019-05-07T22:55:32.657Z,19.35
2019-05-07T22:58:25.922Z,22.20
2019-05-07T23:00:59.141Z,26.00
2019-05-07T23:03:27.843Z,24.82
2019-05-07T23:06:07.082Z,23.27
2019-05-07T23:08:37.624Z,25.45
2019-05-07T23:11:06.717Z,18.45
2019-05-07T23:13:36.593Z,17.37
2019-05-07T23:16:05.979Z,15.93
2019-05-07T23:18:34.741Z,15.88
2019-05-07T23:21:03.816Z,16.07
2019-05-07T23:23:32.616Z,15.45
2019-05-07T23:26:02.932Z,14.95
2019-05-07T23:28:32.370Z,15.13
2019-05-07T23:31:02.552Z,14.15
2019-05-07T23:33:32.188Z,13.88
2019-05-07T23:36:02.180Z,14.35
2019-05-07T23:38:31.962Z,14.78
2019-05-07T23:41:25.911Z,14.85
2019-05-07T23:44:12.406Z,13.75
2019-05-07T23:46:42.608Z,14.13
2019-05-07T23:49:12.558Z,13.72
2019-05-07T23:51:42.957Z,14.25
2019-05-07T23:54:12.303Z,15.48
2019-05-07T23:56:42.808Z,13.38
2019-05-07T23:59:12.692Z,13.83
